createdAt,value
2022-09-23T00:02:22.239Z,954.15
2022-09-23T00:04:48.527Z,954.10
2022-09-23T00:07:14.871Z,954.18
2022-09-23T00:09:41.235Z,954.10
2022-09-23T00:12:09.222Z,954.07
2022-09-23T00:14:33.893Z,954.12
2022-09-23T00:17:00.371Z,954.10
2022-09-23T00:19:26.558Z,953.99
2022-09-23T00:21:52.873Z,954.00
2022-09-23T00:24:19.243Z,953.97
2022-09-23T00:26:45.583Z,953.98
2022-09-23T00:29:11.915Z,953.94
2022-09-23T00:31:38.273Z,954.02
2022-09-23T00:34:04.589Z,953.99
2022-09-23T00:36:30.930Z,953.98
2022-09-23T00:38:57.273Z,954.01
2022-09-23T00:41:23.595Z,954.00
2022-09-23T00:43:49.968Z,954.03
2022-09-23T00:46:16.357Z,953.94
2022-09-23T00:48:42.628Z,953.99
2022-09-23T00:51:08.945Z,953.89
2022-09-23T00:53:35.269Z,953.90
2022-09-23T00:56:01.607Z,953.95
2022-09-23T00:58:27.944Z,953.93
2022-09-23T01:00:54.331Z,953.95
2022-09-23T01:03:20.594Z,953.96
2022-09-23T01:05:46.908Z,953.96
2022-09-23T01:08:13.249Z,954.00
2022-09-23T01:10:39.568Z,954.03
2022-09-23T01:13:05.907Z,954.04
2022-09-23T01:15:32.238Z,954.02
2022-09-23T01:17:58.558Z,953.99
2022-09-23T01:20:24.874Z,953.99
2022-09-23T01:22:51.221Z,953.98
2022-09-23T01:25:17.553Z,953.99
2022-09-23T01:27:43.873Z,953.99
2022-09-23T01:30:10.223Z,954.03
2022-09-23T01:32:36.559Z,954.00
2022-09-23T01:35:02.886Z,954.06
2022-09-23T01:37:29.197Z,954.00
2022-09-23T01:39:55.534Z,954.08
2022-09-23T01:42:21.854Z,954.08
2022-09-23T01:44:48.226Z,954.10
2022-09-23T01:47:14.560Z,954.16
2022-09-23T01:49:40.873Z,954.05
2022-09-23T01:52:07.239Z,954.12
2022-09-23T01:54:33.572Z,954.10
2022-09-23T01:56:59.890Z,954.17
2022-09-23T01:59:26.233Z,954.13
2022-09-23T02:01:52.611Z,954.12
2022-09-23T02:04:18.922Z,954.20
2022-09-23T02:06:45.249Z,954.12
2022-09-23T02:09:11.565Z,954.15
2022-09-23T02:11:37.906Z,954.14
2022-09-23T02:14:04.236Z,954.10
2022-09-23T02:16:30.629Z,954.07
2022-09-23T02:18:56.891Z,954.13
2022-09-23T02:21:23.213Z,954.14
2022-09-23T02:23:49.582Z,954.12
2022-09-23T02:26:15.898Z,954.14
2022-09-23T02:28:42.236Z,954.10
2022-09-23T02:31:08.587Z,954.11
2022-09-23T02:33:34.922Z,954.12
2022-09-23T02:36:01.259Z,954.13
2022-09-23T02:38:27.595Z,954.12
2022-09-23T02:40:53.998Z,954.10
2022-09-23T02:43:20.252Z,954.16
2022-09-23T02:45:46.595Z,954.10
2022-09-23T02:48:12.904Z,954.12
2022-09-23T02:50:39.241Z,954.18
2022-09-23T02:53:05.553Z,954.18
2022-09-23T02:55:31.896Z,954.16
2022-09-23T02:57:58.227Z,954.12
2022-09-23T03:00:24.598Z,954.19
2022-09-23T03:02:50.910Z,954.14
2022-09-23T03:05:17.231Z,954.14
2022-09-23T03:07:43.592Z,954.20
2022-09-23T03:10:09.934Z,954.24
2022-09-23T03:12:36.268Z,954.28
2022-09-23T03:15:02.591Z,954.28
2022-09-23T03:17:28.921Z,954.34
2022-09-23T03:19:55.262Z,954.26
2022-09-23T03:22:21.620Z,954.29
2022-09-23T03:24:51.850Z,954.31
2022-09-23T03:27:14.274Z,954.24
2022-09-23T03:29:40.633Z,954.26
2022-09-23T03:32:06.983Z,954.25
2022-09-23T03:34:33.265Z,954.23
2022-09-23T03:36:59.645Z,954.26
2022-09-23T03:39:25.963Z,954.23
2022-09-23T03:41:52.298Z,954.20
2022-09-23T03:44:18.666Z,954.29
2022-09-23T03:46:44.976Z,954.26
2022-09-23T03:49:11.320Z,954.26
2022-09-23T03:51:41.494Z,954.28
2022-09-23T03:54:03.998Z,954.32
2022-09-23T03:56:30.333Z,954.33
2022-09-23T03:58:56.673Z,954.39
2022-09-23T04:01:23.043Z,954.47
2022-09-23T04:03:49.344Z,954.34
2022-09-23T04:06:15.718Z,954.39
2022-09-23T04:08:42.056Z,954.42
2022-09-23T04:11:08.366Z,954.42
2022-09-23T04:13:34.711Z,954.48
2022-09-23T04:16:01.072Z,954.47
2022-09-23T04:18:27.368Z,954.47
2022-09-23T04:20:53.706Z,954.54
2022-09-23T04:23:20.061Z,954.47
2022-09-23T04:25:46.420Z,954.51
2022-09-23T04:28:12.759Z,954.56
2022-09-23T04:30:39.112Z,954.59
2022-09-23T04:33:05.425Z,954.57
2022-09-23T04:35:31.746Z,954.57
2022-09-23T04:37:58.102Z,954.58
2022-09-23T04:40:24.462Z,954.62
2022-09-23T04:42:50.762Z,954.69
2022-09-23T04:45:17.075Z,954.66
2022-09-23T04:47:43.416Z,954.70
2022-09-23T04:50:09.752Z,954.69
2022-09-23T04:52:36.103Z,954.76
2022-09-23T04:55:02.436Z,954.74
2022-09-23T04:57:28.755Z,954.73
2022-09-23T04:59:55.070Z,954.79
2022-09-23T05:02:21.455Z,954.74
2022-09-23T05:04:47.710Z,954.84
2022-09-23T05:07:14.086Z,954.79
2022-09-23T05:09:40.404Z,954.78
2022-09-23T05:12:06.741Z,954.76
2022-09-23T05:14:33.058Z,954.80
2022-09-23T05:16:59.378Z,954.74
2022-09-23T05:19:25.719Z,954.68
2022-09-23T05:21:52.061Z,954.69
2022-09-23T05:24:18.376Z,954.73
2022-09-23T05:26:44.764Z,954.75
2022-09-23T05:29:11.073Z,954.77
2022-09-23T05:31:37.432Z,954.82
2022-09-23T05:34:03.751Z,954.85
2022-09-23T05:36:34.328Z,954.88
2022-09-23T05:38:56.425Z,954.88
2022-09-23T05:41:22.746Z,954.83
2022-09-23T05:43:49.072Z,954.85
2022-09-23T05:46:15.478Z,954.90
2022-09-23T05:48:41.758Z,954.87
2022-09-23T05:51:08.072Z,954.83
2022-09-23T05:53:34.394Z,954.87
2022-09-23T05:56:00.773Z,954.87
2022-09-23T05:58:27.092Z,954.83
2022-09-23T06:00:53.414Z,954.83
2022-09-23T06:03:19.835Z,954.84
2022-09-23T06:05:46.104Z,954.82
2022-09-23T06:08:12.503Z,954.83
2022-09-23T06:10:38.831Z,954.80
2022-09-23T06:13:05.175Z,954.82
2022-09-23T06:15:31.491Z,954.79
2022-09-23T06:17:57.843Z,954.83
2022-09-23T06:20:24.186Z,954.81
2022-09-23T06:22:54.241Z,954.77
2022-09-23T06:25:16.826Z,954.81
2022-09-23T06:27:43.175Z,954.80
2022-09-23T06:30:09.488Z,954.81
2022-09-23T06:32:35.834Z,954.75
2022-09-23T06:35:02.170Z,954.74
2022-09-23T06:37:28.513Z,954.79
2022-09-23T06:39:54.830Z,954.86
2022-09-23T06:42:21.192Z,954.87
2022-09-23T06:44:47.505Z,954.82
2022-09-23T06:47:13.847Z,954.83
2022-09-23T06:49:40.191Z,954.88
2022-09-23T06:52:06.550Z,954.85
2022-09-23T06:54:32.892Z,954.87
2022-09-23T06:56:59.232Z,954.82
2022-09-23T06:59:25.550Z,954.88
2022-09-23T07:01:51.975Z,954.97
2022-09-23T07:04:18.236Z,954.96
2022-09-23T07:06:44.593Z,955.03
2022-09-23T07:09:10.909Z,954.98
2022-09-23T07:11:37.262Z,955.13
2022-09-23T07:14:03.600Z,955.11
2022-09-23T07:16:30.025Z,955.04
2022-09-23T07:18:56.301Z,955.08
2022-09-23T07:21:22.624Z,955.07
2022-09-23T07:23:48.952Z,955.10
2022-09-23T07:26:15.297Z,955.14
2022-09-23T07:28:41.615Z,955.14
2022-09-23T07:31:08.009Z,955.14
2022-09-23T07:33:34.291Z,955.20
2022-09-23T07:36:00.599Z,955.15
2022-09-23T07:38:26.969Z,955.21
2022-09-23T07:40:53.344Z,955.23
2022-09-23T07:43:19.607Z,955.28
2022-09-23T07:45:45.949Z,955.27
2022-09-23T07:48:12.268Z,955.26
2022-09-23T07:50:38.613Z,955.28
2022-09-23T07:53:04.951Z,955.22
2022-09-23T07:55:31.271Z,955.22
2022-09-23T07:57:57.641Z,955.24
2022-09-23T08:00:23.982Z,955.26
2022-09-23T08:02:52.955Z,955.27
2022-09-23T08:05:16.626Z,955.27
2022-09-23T08:07:42.944Z,955.24
2022-09-23T08:10:09.286Z,955.26
2022-09-23T08:12:35.659Z,955.35
2022-09-23T08:15:02.005Z,955.28
2022-09-23T08:17:28.343Z,955.25
2022-09-23T08:19:54.741Z,955.25
2022-09-23T08:22:21.049Z,955.26
2022-09-23T08:24:47.395Z,955.21
2022-09-23T08:27:13.773Z,955.21
2022-09-23T08:29:40.114Z,955.14
2022-09-23T08:32:06.447Z,955.10
2022-09-23T08:34:32.836Z,955.16
2022-09-23T08:36:59.161Z,955.07
2022-09-23T08:39:25.477Z,955.11
2022-09-23T08:41:56.101Z,955.17
2022-09-23T08:44:18.127Z,955.12
2022-09-23T08:46:44.470Z,955.09
2022-09-23T08:49:10.794Z,955.18
2022-09-23T08:51:37.190Z,955.04
2022-09-23T08:54:03.539Z,955.09
2022-09-23T08:56:29.885Z,955.10
2022-09-23T08:58:56.277Z,955.10
2022-09-23T09:01:22.682Z,955.10
2022-09-23T09:03:48.934Z,955.07
2022-09-23T09:06:15.279Z,954.98
2022-09-23T09:08:41.618Z,955.06
2022-09-23T09:11:08.969Z,955.04
2022-09-23T09:13:35.308Z,955.00
2022-09-23T09:16:01.646Z,955.05
2022-09-23T09:18:27.947Z,955.09
2022-09-23T09:20:54.272Z,955.09
2022-09-23T09:23:20.618Z,955.09
2022-09-23T09:25:46.933Z,955.08
2022-09-23T09:28:13.300Z,955.16
2022-09-23T09:30:39.701Z,955.09
2022-09-23T09:33:05.957Z,955.06
2022-09-23T09:35:32.308Z,955.06
2022-09-23T09:37:58.650Z,954.98
2022-09-23T09:40:25.047Z,955.07
2022-09-23T09:42:51.369Z,955.06
2022-09-23T09:45:19.723Z,955.14
2022-09-23T09:47:44.019Z,955.14
2022-09-23T09:50:10.393Z,955.13
2022-09-23T09:52:42.695Z,955.12
2022-09-23T09:55:09.007Z,955.03
2022-09-23T09:57:36.180Z,955.06
2022-09-23T10:00:01.672Z,955.05
2022-09-23T10:02:27.989Z,955.03
2022-09-23T10:04:54.326Z,954.99
2022-09-23T10:07:20.656Z,954.99
2022-09-23T10:09:46.970Z,954.93
2022-09-23T10:12:13.346Z,954.92
2022-09-23T10:14:39.682Z,954.90
2022-09-23T10:17:06.085Z,954.96
2022-09-23T10:19:32.389Z,954.86
2022-09-23T10:21:58.737Z,954.90
2022-09-23T10:24:25.050Z,954.86
2022-09-23T10:26:51.412Z,954.90
2022-09-23T10:29:17.732Z,954.75
2022-09-23T10:31:44.079Z,954.77
2022-09-23T10:34:10.451Z,954.71
2022-09-23T10:36:40.071Z,954.69
2022-09-23T10:39:03.171Z,954.62
2022-09-23T10:41:29.467Z,954.67
2022-09-23T10:43:55.781Z,954.68
2022-09-23T10:46:22.291Z,954.64
2022-09-23T10:48:48.505Z,954.71
2022-09-23T10:51:14.846Z,954.65
2022-09-23T10:53:41.194Z,954.59
2022-09-23T10:56:07.541Z,954.53
2022-09-23T10:58:33.883Z,954.50
2022-09-23T11:01:00.291Z,954.48
2022-09-23T11:03:26.535Z,954.46
2022-09-23T11:05:52.854Z,954.51
2022-09-23T11:08:19.208Z,954.48
2022-09-23T11:10:46.608Z,954.39
2022-09-23T11:13:11.852Z,954.37
2022-09-23T11:15:38.176Z,954.26
2022-09-23T11:18:04.498Z,954.29
2022-09-23T11:20:30.851Z,954.30
2022-09-23T11:22:57.168Z,954.28
2022-09-23T11:25:23.521Z,954.24
2022-09-23T11:27:49.891Z,954.28
2022-09-23T11:30:16.236Z,954.24
2022-09-23T11:32:42.551Z,954.23
2022-09-23T11:35:08.918Z,954.21
2022-09-23T11:37:35.213Z,954.12
2022-09-23T11:40:01.538Z,954.24
2022-09-23T11:42:27.859Z,954.12
2022-09-23T11:44:54.207Z,954.07
2022-09-23T11:47:20.540Z,954.10
2022-09-23T11:49:46.884Z,954.06
2022-09-23T11:52:13.220Z,954.09
2022-09-23T11:54:39.558Z,954.04
2022-09-23T11:57:05.877Z,954.01
2022-09-23T11:59:39.460Z,953.93
2022-09-23T12:02:01.812Z,953.96
2022-09-23T12:04:25.269Z,954.00
2022-09-23T12:06:51.196Z,954.05
2022-09-23T12:09:17.539Z,954.09
2022-09-23T12:11:43.887Z,954.06
2022-09-23T12:14:10.297Z,954.07
2022-09-23T12:16:36.634Z,954.04
2022-09-23T12:19:02.903Z,954.21
2022-09-23T12:21:49.166Z,954.08
2022-09-23T12:23:55.596Z,954.05
2022-09-23T12:26:21.924Z,954.06
2022-09-23T12:28:48.267Z,954.03
2022-09-23T12:31:14.703Z,953.98
2022-09-23T12:33:40.980Z,953.94
2022-09-23T12:36:07.292Z,953.95
2022-09-23T12:38:33.634Z,953.94
2022-09-23T12:40:59.958Z,953.95
2022-09-23T12:43:26.282Z,953.93
2022-09-23T12:45:52.666Z,953.91
2022-09-23T12:48:18.959Z,954.00
2022-09-23T12:50:45.283Z,953.92
2022-09-23T12:53:11.606Z,953.93
2022-09-23T12:55:37.950Z,953.95
2022-09-23T12:58:04.303Z,953.95
2022-09-23T13:00:34.243Z,953.96
2022-09-23T13:02:56.982Z,953.95
2022-09-23T13:05:23.358Z,953.92
2022-09-23T13:07:49.680Z,953.87
2022-09-23T13:10:16.001Z,953.91
2022-09-23T13:12:42.346Z,953.87
2022-09-23T13:15:08.682Z,953.89
2022-09-23T13:17:35.021Z,953.87
2022-09-23T13:20:01.364Z,953.81
2022-09-23T13:22:27.705Z,953.84
2022-09-23T13:24:54.048Z,953.88
2022-09-23T13:27:20.420Z,953.88
2022-09-23T13:29:46.738Z,953.94
2022-09-23T13:32:13.082Z,953.87
2022-09-23T13:34:39.396Z,953.91
2022-09-23T13:37:05.740Z,953.84
2022-09-23T13:39:32.077Z,953.79
2022-09-23T13:41:58.446Z,953.88
2022-09-23T13:44:24.760Z,953.83
2022-09-23T13:46:51.117Z,953.78
2022-09-23T13:49:17.485Z,953.82
2022-09-23T13:51:43.830Z,953.77
2022-09-23T13:54:10.207Z,953.75
2022-09-23T13:56:36.495Z,953.76
2022-09-23T13:59:02.834Z,953.75
2022-09-23T14:01:29.238Z,953.72
2022-09-23T14:03:55.532Z,953.74
2022-09-23T14:06:21.851Z,953.69
2022-09-23T14:08:48.172Z,953.66
2022-09-23T14:11:14.561Z,953.70
2022-09-23T14:13:40.897Z,953.65
2022-09-23T14:16:07.239Z,953.59
2022-09-23T14:18:33.566Z,953.55
2022-09-23T14:20:59.908Z,953.54
2022-09-23T14:23:26.246Z,953.54
2022-09-23T14:25:52.587Z,953.57
2022-09-23T14:28:18.929Z,953.62
2022-09-23T14:30:45.246Z,953.60
2022-09-23T14:33:11.587Z,953.53
2022-09-23T14:35:37.930Z,953.57
2022-09-23T14:38:04.243Z,953.50
2022-09-23T14:40:30.723Z,953.49
2022-09-23T14:42:56.973Z,953.48
2022-09-23T14:45:23.344Z,953.49
2022-09-23T14:47:49.650Z,953.59
2022-09-23T14:50:15.990Z,953.56
2022-09-23T14:52:42.304Z,953.52
2022-09-23T14:55:08.645Z,953.56
2022-09-23T14:57:34.982Z,953.48
2022-09-23T15:00:01.323Z,953.52
2022-09-23T15:02:27.678Z,953.45
2022-09-23T15:04:55.177Z,953.49
2022-09-23T15:07:20.346Z,953.47
2022-09-23T15:09:46.703Z,953.53
2022-09-23T15:12:13.044Z,953.54
2022-09-23T15:14:40.851Z,953.56
2022-09-23T15:17:05.702Z,953.64
2022-09-23T15:19:32.027Z,953.69
2022-09-23T15:21:58.366Z,953.63
2022-09-23T15:24:24.706Z,953.65
2022-09-23T15:26:51.028Z,953.68
2022-09-23T15:29:17.373Z,953.63
2022-09-23T15:31:43.788Z,953.63
2022-09-23T15:34:10.102Z,953.59
2022-09-23T15:36:36.387Z,953.61
2022-09-23T15:39:02.728Z,953.66
2022-09-23T15:41:29.043Z,953.65
2022-09-23T15:43:55.388Z,953.67
2022-09-23T15:46:21.781Z,953.70
2022-09-23T15:48:48.079Z,953.72
2022-09-23T15:51:14.412Z,953.77
2022-09-23T15:53:40.792Z,953.80
2022-09-23T15:56:07.107Z,953.89
2022-09-23T15:58:33.467Z,953.84
2022-09-23T16:00:59.895Z,953.95
2022-09-23T16:03:26.134Z,953.92
2022-09-23T16:05:52.448Z,953.94
2022-09-23T16:08:18.823Z,953.95
2022-09-23T16:10:45.136Z,953.96
2022-09-23T16:13:11.460Z,953.96
2022-09-23T16:15:37.786Z,953.95
2022-09-23T16:18:04.122Z,953.96
2022-09-23T16:20:30.439Z,953.99
2022-09-23T16:22:56.791Z,954.04
2022-09-23T16:25:23.138Z,954.00
2022-09-23T16:27:49.475Z,954.10
2022-09-23T16:30:15.876Z,954.04
2022-09-23T16:32:42.198Z,954.04
2022-09-23T16:35:08.560Z,954.01
2022-09-23T16:37:35.172Z,954.05
2022-09-23T16:40:01.214Z,954.01
2022-09-23T16:42:27.578Z,954.09
2022-09-23T16:44:53.891Z,954.08
2022-09-23T16:47:20.250Z,954.17
2022-09-23T16:49:46.604Z,954.14
2022-09-23T16:52:12.916Z,954.17
2022-09-23T16:54:39.291Z,954.18
2022-09-23T16:57:05.629Z,954.24
2022-09-23T16:59:31.968Z,954.25
2022-09-23T17:01:58.415Z,954.28
2022-09-23T17:04:24.701Z,954.31
2022-09-23T17:06:51.038Z,954.32
2022-09-23T17:09:17.416Z,954.32
2022-09-23T17:11:43.750Z,954.37
2022-09-23T17:14:10.070Z,954.42
2022-09-23T17:16:36.457Z,954.52
2022-09-23T17:19:02.809Z,954.48
2022-09-23T17:21:29.109Z,954.46
2022-09-23T17:23:55.489Z,954.51
2022-09-23T17:26:21.817Z,954.53
2022-09-23T17:28:48.157Z,954.55
2022-09-23T17:31:14.547Z,954.52
2022-09-23T17:33:40.846Z,954.57
2022-09-23T17:36:07.181Z,954.66
2022-09-23T17:38:33.541Z,954.57
2022-09-23T17:41:00.119Z,954.62
2022-09-23T17:43:26.217Z,954.65
2022-09-23T17:45:52.592Z,954.58
2022-09-23T17:48:18.909Z,954.56
2022-09-23T17:50:45.246Z,954.61
2022-09-23T17:53:11.598Z,954.66
2022-09-23T17:55:37.937Z,954.61
2022-09-23T17:58:04.280Z,954.64
2022-09-23T18:00:30.726Z,954.65
2022-09-23T18:02:56.949Z,954.65
2022-09-23T18:05:23.287Z,954.66
2022-09-23T18:07:49.609Z,954.65
2022-09-23T18:10:15.932Z,954.74
2022-09-23T18:12:42.274Z,954.71
2022-09-23T18:15:08.594Z,954.78
2022-09-23T18:17:34.972Z,954.73
2022-09-23T18:20:01.280Z,954.76
2022-09-23T18:22:27.632Z,954.78
2022-09-23T18:24:53.966Z,954.86
2022-09-23T18:27:20.310Z,954.87
2022-09-23T18:29:46.627Z,954.86
2022-09-23T18:32:14.311Z,954.84
2022-09-23T18:34:39.294Z,954.85
2022-09-23T18:37:15.007Z,954.79
2022-09-23T18:39:31.969Z,954.84
2022-09-23T18:41:58.291Z,954.84
2022-09-23T18:44:24.630Z,954.92
2022-09-23T18:46:50.958Z,954.94
2022-09-23T18:49:17.278Z,954.94
2022-09-23T18:51:43.602Z,954.91
2022-09-23T18:54:09.977Z,954.94
2022-09-23T18:56:36.270Z,954.99
2022-09-23T18:59:02.582Z,955.02
2022-09-23T19:01:29.028Z,955.03
2022-09-23T19:03:55.292Z,955.05
2022-09-23T19:06:21.626Z,955.11
2022-09-23T19:08:47.953Z,955.04
2022-09-23T19:11:14.277Z,955.10
2022-09-23T19:13:40.615Z,955.10
2022-09-23T19:16:06.977Z,955.12
2022-09-23T19:18:33.289Z,955.08
2022-09-23T19:21:01.556Z,955.11
2022-09-23T19:23:26.153Z,955.18
2022-09-23T19:25:52.498Z,955.16
2022-09-23T19:28:18.836Z,955.16
2022-09-23T19:30:45.192Z,955.14
2022-09-23T19:33:11.511Z,955.22
2022-09-23T19:35:37.834Z,955.20
2022-09-23T19:38:04.174Z,955.19
2022-09-23T19:40:30.564Z,955.18
2022-09-23T19:42:56.852Z,955.21
2022-09-23T19:45:23.204Z,955.18
2022-09-23T19:47:49.543Z,955.18
2022-09-23T19:50:15.887Z,955.24
2022-09-23T19:52:42.222Z,955.24
2022-09-23T19:55:08.571Z,955.29
2022-09-23T19:57:34.908Z,955.24
2022-09-23T20:00:01.248Z,955.22
2022-09-23T20:02:27.640Z,955.21
2022-09-23T20:04:53.924Z,955.21
2022-09-23T20:07:20.262Z,955.18
2022-09-23T20:09:46.612Z,955.18
2022-09-23T20:12:12.953Z,955.18
2022-09-23T20:14:39.273Z,955.21
2022-09-23T20:17:05.617Z,955.21
2022-09-23T20:19:31.937Z,955.18
2022-09-23T20:21:58.275Z,955.21
2022-09-23T20:24:24.598Z,955.19
2022-09-23T20:26:50.923Z,955.27
2022-09-23T20:29:17.260Z,955.22
2022-09-23T20:31:43.664Z,955.32
2022-09-23T20:34:09.987Z,955.32
2022-09-23T20:36:36.337Z,955.41
2022-09-23T20:39:02.633Z,955.45
2022-09-23T20:41:28.968Z,955.39
2022-09-23T20:43:55.315Z,955.45
2022-09-23T20:46:21.730Z,955.40
2022-09-23T20:48:48.036Z,955.41
2022-09-23T20:51:14.345Z,955.44
2022-09-23T20:53:40.731Z,955.45
2022-09-23T20:56:07.072Z,955.50
2022-09-23T20:58:33.394Z,955.48
2022-09-23T21:00:59.938Z,955.49
2022-09-23T21:03:26.117Z,955.51
2022-09-23T21:05:52.455Z,955.50
2022-09-23T21:08:18.801Z,955.56
2022-09-23T21:10:45.136Z,955.55
2022-09-23T21:13:11.460Z,955.50
2022-09-23T21:15:37.778Z,955.56
2022-09-23T21:18:04.123Z,955.50
2022-09-23T21:20:30.443Z,955.56
2022-09-23T21:22:56.765Z,955.46
2022-09-23T21:25:28.145Z,955.50
2022-09-23T21:27:49.407Z,955.51
2022-09-23T21:30:15.776Z,955.47
2022-09-23T21:32:42.114Z,955.44
2022-09-23T21:35:08.448Z,955.51
2022-09-23T21:37:34.805Z,955.49
2022-09-23T21:40:01.144Z,955.56
2022-09-23T21:42:27.462Z,955.57
2022-09-23T21:44:53.803Z,955.57
2022-09-23T21:47:20.173Z,955.67
2022-09-23T21:49:50.627Z,955.64
2022-09-23T21:52:12.812Z,955.67
2022-09-23T21:54:39.131Z,955.70
2022-09-23T21:57:05.473Z,955.74
2022-09-23T21:59:31.792Z,955.72
2022-09-23T22:01:58.117Z,955.80
2022-09-23T22:04:24.601Z,955.76
2022-09-23T22:06:50.798Z,955.70
2022-09-23T22:09:17.118Z,955.70
2022-09-23T22:11:43.459Z,955.69
2022-09-23T22:14:09.802Z,955.63
2022-09-23T22:16:36.170Z,955.64
2022-09-23T22:19:02.473Z,955.63
2022-09-23T22:21:28.821Z,955.68
2022-09-23T22:23:55.158Z,955.70
2022-09-23T22:26:21.481Z,955.66
2022-09-23T22:28:47.862Z,955.66
2022-09-23T22:31:14.233Z,955.71
2022-09-23T22:33:40.503Z,955.70
2022-09-23T22:36:06.896Z,955.70
2022-09-23T22:38:33.238Z,955.70
2022-09-23T22:40:59.619Z,955.76
2022-09-23T22:43:25.938Z,955.75
2022-09-23T22:45:52.283Z,955.69
2022-09-23T22:48:18.598Z,955.66
2022-09-23T22:50:44.970Z,955.68
2022-09-23T22:53:11.303Z,955.72
2022-09-23T22:55:37.623Z,955.72
2022-09-23T22:58:27.628Z,955.67
2022-09-23T23:00:30.268Z,955.70
2022-09-23T23:02:56.640Z,955.66
2022-09-23T23:05:22.978Z,955.72
2022-09-23T23:07:49.288Z,955.67
2022-09-23T23:10:15.614Z,955.74
2022-09-23T23:12:41.955Z,955.76
2022-09-23T23:15:08.294Z,955.75
2022-09-23T23:17:34.605Z,955.65
2022-09-23T23:20:00.944Z,955.71
2022-09-23T23:22:27.254Z,955.65
2022-09-23T23:24:53.608Z,955.73
2022-09-23T23:27:19.946Z,955.74
2022-09-23T23:29:46.278Z,955.75
2022-09-23T23:32:12.613Z,955.72
2022-09-23T23:34:38.933Z,955.72
2022-09-23T23:37:05.277Z,955.70
2022-09-23T23:39:31.598Z,955.70
2022-09-23T23:41:57.918Z,955.69
2022-09-23T23:44:24.271Z,955.67
2022-09-23T23:46:50.744Z,955.64
2022-09-23T23:49:16.945Z,955.59
2022-09-23T23:51:43.292Z,955.55
2022-09-23T23:54:09.630Z,955.52
2022-09-23T23:56:35.943Z,955.45
2022-09-23T23:59:02.320Z,955.48
